| time (UTC) | temp F | wind direction | speed MPH | gust MPH | rain 1hr in | rain 24hr in | rain mn in | humidity % | barometer mb |
| 20260504151011 | 68 | 257 | 5.0 | 9.0 | 0.00 | 0.00 | 0.00 | 41 | 1004.2 |
| 20260504150507 | 67 | 261 | 4.0 | 10.0 | 0.00 | 0.00 | 0.00 | 44 | 1004.3 |
| 20260504141009 | 61 | 257 | 5.0 | 10.0 | 0.00 | 0.00 | 0.00 | 52 | 1004.5 |
| 20260504140506 | 61 | 244 | 6.0 | 10.0 | 0.00 | 0.00 | 0.00 | 52 | 1004.6 |
| 20260504130507 | 53 | 275 | 2.0 | 9.0 | 0.00 | 0.00 | 0.00 | 63 | 1004.4 |
| 20260504110503 | 50 | 198 | 1.0 | 2.0 | 0.00 | 0.00 | 0.00 | 65 | 1003.6 |
| 20260504100507 | 54 | 150 | 1.0 | 3.0 | 0.00 | 0.00 | 0.00 | 58 | 1003.7 |
| 20260504082007 | 56 | 163 | 3.0 | 6.0 | 0.00 | 0.00 | 0.00 | 54 | 1004.2 |
| 20260504081526 | 56 | 161 | 3.0 | 7.0 | 0.00 | 0.00 | 0.00 | 54 | 1004.3 |
| 20260504081007 | 56 | 160 | 3.0 | 8.0 | 0.00 | 0.00 | 0.00 | 54 | 1004.4 |
| 20260504080508 | 56 | 156 | 5.0 | 9.0 | 0.00 | 0.00 | 0.00 | 53 | 1004.4 |
| 20260504050506 | 56 | 101 | 2.0 | 4.0 | 0.00 | 0.00 | 0.00 | 51 | 1007.3 |
| 20260504050020 | 57 | 101 | 2.0 | 6.0 | 0.00 | 0.00 | 0.00 | 50 | 1007.4 |
| 20260504045506 | 57 | 101 | 2.0 | 6.0 | 0.00 | 0.00 | 0.00 | 49 | 1007.4 |
| 20260504045007 | 57 | 101 | 3.0 | 6.0 | 0.00 | 0.00 | 0.00 | 48 | 1007.4 |
| 20260504044508 | 58 | 101 | 2.0 | 6.0 | 0.00 | 0.00 | 0.00 | 48 | 1007.4 |
| 20260504044003 | 58 | 101 | 3.0 | 6.0 | 0.00 | 0.00 | 0.00 | 48 | 1007.5 |
| 20260504043503 | 57 | 101 | 3.0 | 6.0 | 0.00 | 0.00 | 0.00 | 48 | 1007.5 |
| 20260504043005 | 58 | 101 | 2.0 | 7.0 | 0.00 | 0.00 | 0.00 | 48 | 1007.4 |
| 20260504042503 | 58 | 101 | 3.0 | 7.0 | 0.00 | 0.00 | 0.00 | 48 | 1007.4 |
| 20260504042006 | 59 | 101 | 3.0 | 7.0 | 0.00 | 0.00 | 0.00 | 47 | 1007.5 |
| 20260504041512 | 59 | 100 | 2.0 | 6.0 | 0.00 | 0.00 | 0.00 | 47 | 1007.6 |
| 20260504041004 | 59 | 96 | 1.0 | 6.0 | 0.00 | 0.00 | 0.00 | 46 | 1007.6 |
| 20260504040507 | 59 | 96 | 1.0 | 7.0 | 0.00 | 0.00 | 0.00 | 46 | 1007.6 |
| 20260504040032 | 59 | 96 | 2.0 | 8.0 | 0.00 | 0.00 | 0.00 | 46 | 1007.7 |
| 20260504035511 | 59 | 92 | 2.0 | 8.0 | 0.00 | 0.00 | 0.00 | 47 | 1007.7 |
| 20260504035006 | 59 | 86 | 3.0 | 8.0 | 0.00 | 0.00 | 0.00 | 49 | 1007.7 |
| 20260504034531 | 58 | 84 | 3.0 | 6.0 | 0.00 | 0.00 | 0.00 | 50 | 1007.7 |
| 20260504034003 | 58 | 72 | 4.0 | 6.0 | 0.00 | 0.00 | 0.00 | 50 | 1007.8 |
| 20260504033505 | 58 | 66 | 2.0 | 4.0 | 0.00 | 0.00 | 0.00 | 50 | 1008.0 |
| 20260504033004 | 59 | 64 | 3.0 | 5.0 | 0.00 | 0.00 | 0.00 | 49 | 1008.1 |
| 20260504032503 | 59 | 62 | 2.0 | 5.0 | 0.00 | 0.00 | 0.00 | 49 | 1008.1 |
| 20260504032004 | 59 | 60 | 2.0 | 5.0 | 0.00 | 0.00 | 0.00 | 49 | 1008.2 |
| 20260504031507 | 60 | 60 | 3.0 | 6.0 | 0.00 | 0.00 | 0.00 | 47 | 1008.1 |
| 20260504031005 | 61 | 55 | 3.0 | 6.0 | 0.00 | 0.00 | 0.00 | 46 | 1008.2 |
| 20260504030504 | 61 | 53 | 4.0 | 6.0 | 0.00 | 0.00 | 0.00 | 46 | 1008.1 |
| 20260504030014 | 61 | 52 | 3.0 | 6.0 | 0.00 | 0.00 | 0.00 | 46 | 1008.2 |
| 20260504025505 | 62 | 47 | 3.0 | 4.0 | 0.00 | 0.00 | 0.00 | 45 | 1008.2 |
| 20260504025005 | 62 | 47 | 2.0 | 6.0 | 0.00 | 0.00 | 0.00 | 44 | 1008.2 |
| 20260504024521 | 63 | 47 | 2.0 | 6.0 | 0.00 | 0.00 | 0.00 | 41 | 1008.2 |
| 20260504024011 | 64 | 47 | 2.0 | 4.0 | 0.00 | 0.00 | 0.00 | 41 | 1008.3 |
| 20260504023508 | 64 | 47 | 2.0 | 4.0 | 0.00 | 0.00 | 0.00 | 41 | 1008.2 |
| 20260504023005 | 64 | 47 | 1.0 | 4.0 | 0.00 | 0.00 | 0.00 | 42 | 1008.2 |
| 20260504022504 | 64 | 47 | 2.0 | 6.0 | 0.00 | 0.00 | 0.00 | 42 | 1008.3 |
| 20260504022003 | 63 | 47 | 2.0 | 6.0 | 0.00 | 0.00 | 0.00 | 43 | 1008.3 |
| 20260504021506 | 63 | 44 | 1.0 | 4.0 | 0.00 | 0.00 | 0.00 | 44 | 1008.3 |
| 20260504021004 | 63 | 44 | 1.0 | 4.0 | 0.00 | 0.00 | 0.00 | 44 | 1008.3 |
| 20260504020503 | 63 | 44 | 2.0 | 5.0 | 0.00 | 0.00 | 0.00 | 43 | 1008.2 |
| 20260504020028 | 64 | 44 | 2.0 | 6.0 | 0.00 | 0.00 | 0.00 | 43 | 1008.3 |
| 20260504015505 | 65 | 42 | 3.0 | 6.0 | 0.00 | 0.00 | 0.00 | 42 | 1008.3 |
| 20260504015007 | 66 | 34 | 3.0 | 6.0 | 0.00 | 0.00 | 0.00 | 40 | 1008.3 |
| 20260504014523 | 66 | 34 | 4.0 | 6.0 | 0.00 | 0.00 | 0.00 | 39 | 1008.3 |
| 20260504014005 | 66 | 34 | 3.0 | 5.0 | 0.00 | 0.00 | 0.00 | 39 | 1008.3 |
| 20260504013507 | 67 | 34 | 2.0 | 8.0 | 0.00 | 0.00 | 0.00 | 40 | 1008.4 |
| 20260504013029 | 67 | 34 | 4.0 | 8.0 | 0.00 | 0.00 | 0.00 | 39 | 1008.3 |
| 20260504012507 | 68 | 34 | 3.0 | 8.0 | 0.00 | 0.00 | 0.00 | 38 | 1008.3 |
| 20260504012008 | 69 | 32 | 3.0 | 8.0 | 0.00 | 0.00 | 0.00 | 37 | 1008.3 |
| 20260504011505 | 69 | 24 | 4.0 | 8.0 | 0.00 | 0.00 | 0.00 | 37 | 1008.3 |
| 20260504011007 | 69 | 22 | 5.0 | 8.0 | 0.00 | 0.00 | 0.00 | 36 | 1008.3 |
| 20260504010503 | 70 | 22 | 3.0 | 6.0 | 0.00 | 0.00 | 0.00 | 36 | 1008.3 |
| 20260504010009 | 70 | 23 | 3.0 | 7.0 | 0.00 | 0.00 | 0.00 | 36 | 1008.4 |
| 20260504005503 | 71 | 22 | 4.0 | 7.0 | 0.00 | 0.00 | 0.00 | 35 | 1008.5 |
| 20260504005006 | 71 | 19 | 4.0 | 8.0 | 0.00 | 0.00 | 0.00 | 34 | 1008.5 |
| 20260504004520 | 71 | 20 | 4.0 | 9.0 | 0.00 | 0.00 | 0.00 | 33 | 1008.5 |
| 20260504004005 | 72 | 22 | 5.0 | 11.0 | 0.00 | 0.00 | 0.00 | 33 | 1008.7 |
| 20260504003507 | 72 | 18 | 7.0 | 11.0 | 0.00 | 0.00 | 0.00 | 32 | 1008.7 |
| 20260504003020 | 73 | 24 | 5.0 | 10.0 | 0.00 | 0.00 | 0.00 | 31 | 1008.8 |
| 20260504002508 | 74 | 32 | 2.0 | 6.0 | 0.00 | 0.00 | 0.00 | 29 | 1008.9 |
| 20260504002006 | 74 | 32 | 3.0 | 5.0 | 0.00 | 0.00 | 0.00 | 28 | 1008.9 |
| 20260504001524 | 75 | 32 | 2.0 | 4.0 | 0.00 | 0.00 | 0.00 | 29 | 1009.0 |
| 20260504001008 | 74 | 32 | 0.0 | 3.0 | 0.00 | 0.00 | 0.00 | 28 | 1009.0 |
| 20260504000503 | 74 | 32 | 2.0 | 4.0 | 0.00 | 0.00 | 0.00 | 28 | 1009.1 |
| 20260504000007 | 74 | 32 | 1.0 | 4.0 | 0.00 | 0.00 | 0.00 | 27 | 1009.1 |
| 20260503235503 | 75 | 32 | 2.0 | 4.0 | 0.00 | 0.00 | 0.00 | 28 | 1009.2 |
| 20260503235003 | 75 | 32 | 0.0 | 2.0 | 0.00 | 0.00 | 0.00 | 28 | 1009.2 |
| 20260503234510 | 74 | 32 | 0.0 | 4.0 | 0.00 | 0.00 | 0.00 | 27 | 1009.3 |
| 20260503234011 | 74 | 32 | 1.0 | 4.0 | 0.00 | 0.00 | 0.00 | 28 | 1009.3 |
| 20260503233507 | 74 | 32 | 0.0 | 3.0 | 0.00 | 0.00 | 0.00 | 27 | 1009.4 |
| 20260503233016 | 74 | 32 | 0.0 | 6.0 | 0.00 | 0.00 | 0.00 | 29 | 1009.4 |
| 20260503232510 | 74 | 32 | 3.0 | 6.0 | 0.00 | 0.00 | 0.00 | 28 | 1009.5 |
| 20260503232011 | 74 | 32 | 1.0 | 4.0 | 0.00 | 0.00 | 0.00 | 29 | 1009.5 |
| 20260503231522 | 74 | 32 | 2.0 | 10.0 | 0.00 | 0.00 | 0.00 | 28 | 1009.5 |
| 20260503231009 | 74 | 32 | 1.0 | 12.0 | 0.00 | 0.00 | 0.00 | 29 | 1009.6 |
| 20260503230508 | 74 | 32 | 6.0 | 12.0 | 0.00 | 0.00 | 0.00 | 28 | 1009.6 |
| 20260503230023 | 75 | 26 | 4.0 | 12.0 | 0.00 | 0.00 | 0.00 | 28 | 1009.6 |
| 20260503225503 | 75 | 22 | 6.0 | 12.0 | 0.00 | 0.00 | 0.00 | 28 | 1009.6 |
| 20260503225003 | 74 | 355 | 2.0 | 12.0 | 0.00 | 0.00 | 0.00 | 28 | 1009.7 |
| 20260503224512 | 74 | 355 | 8.0 | 12.0 | 0.00 | 0.00 | 0.00 | 27 | 1009.7 |
| 20260503224005 | 75 | 20 | 6.0 | 12.0 | 0.00 | 0.00 | 0.00 | 27 | 1009.7 |
| 20260503223507 | 75 | 17 | 4.0 | 7.0 | 0.00 | 0.00 | 0.00 | 28 | 1009.8 |
| 20260503223012 | 75 | 19 | 3.0 | 7.0 | 0.00 | 0.00 | 0.00 | 28 | 1009.8 |
| 20260503222503 | 75 | 19 | 0.0 | 7.0 | 0.00 | 0.00 | 0.00 | 27 | 1009.8 |
| 20260503222007 | 75 | 19 | 3.0 | 7.0 | 0.00 | 0.00 | 0.00 | 27 | 1009.9 |
| 20260503221528 | 74 | 21 | 2.0 | 7.0 | 0.00 | 0.00 | 0.00 | 27 | 1010.0 |
| 20260503221008 | 74 | 21 | 0.0 | 11.0 | 0.00 | 0.00 | 0.00 | 29 | 1009.9 |
| 20260503220508 | 74 | 21 | 2.0 | 11.0 | 0.00 | 0.00 | 0.00 | 28 | 1010.0 |
| 20260503220026 | 74 | 25 | 6.0 | 13.0 | 0.00 | 0.00 | 0.00 | 28 | 1010.0 |
| 20260503215507 | 74 | 20 | 4.0 | 13.0 | 0.00 | 0.00 | 0.00 | 28 | 1010.1 |
| 20260503215013 | 74 | 5 | 6.0 | 13.0 | 0.00 | 0.00 | 0.00 | 28 | 1010.1 |
| 20260503214506 | 74 | 5 | 1.0 | 10.0 | 0.00 | 0.00 | 0.00 | 29 | 1010.2 |
| 20260503214005 | 74 | 5 | 5.0 | 11.0 | 0.00 | 0.00 | 0.00 | 28 | 1010.3 |
| 20260503213502 | 74 | 360 | 5.0 | 11.0 | 0.00 | 0.00 | 0.00 | 28 | 1010.3 |
| 20260503213025 | 74 | 360 | 4.0 | 12.0 | 0.00 | 0.00 | 0.00 | 29 | 1010.4 |
| 20260503212506 | 73 | 343 | 8.0 | 14.0 | 0.00 | 0.00 | 0.00 | 28 | 1010.4 |
| 20260503212006 | 74 | 360 | 9.0 | 14.0 | 0.00 | 0.00 | 0.00 | 28 | 1010.5 |
| 20260503211520 | 75 | 360 | 8.0 | 13.0 | 0.00 | 0.00 | 0.00 | 28 | 1010.5 |
| 20260503211011 | 74 | 37 | 4.0 | 13.0 | 0.00 | 0.00 | 0.00 | 28 | 1010.6 |
| 20260503210506 | 74 | 26 | 9.0 | 12.0 | 0.00 | 0.00 | 0.00 | 29 | 1010.7 |
| 20260503210021 | 74 | 13 | 6.0 | 11.0 | 0.00 | 0.00 | 0.00 | 29 | 1010.7 |
| 20260503205507 | 74 | 342 | 4.0 | 10.0 | 0.00 | 0.00 | 0.00 | 29 | 1010.7 |
| 20260503205012 | 74 | 346 | 6.0 | 13.0 | 0.00 | 0.00 | 0.00 | 29 | 1010.8 |
| 20260503204526 | 74 | 5 | 5.0 | 13.0 | 0.00 | 0.00 | 0.00 | 29 | 1010.8 |
| 20260503204010 | 74 | 360 | 2.0 | 11.0 | 0.00 | 0.00 | 0.00 | 29 | 1010.9 |
| 20260503203508 | 74 | 5 | 6.0 | 12.0 | 0.00 | 0.00 | 0.00 | 29 | 1010.9 |
| 20260503203010 | 74 | 99 | 2.0 | 12.0 | 0.00 | 0.00 | 0.00 | 29 | 1010.9 |
| 20260503202503 | 74 | 29 | 3.0 | 10.0 | 0.00 | 0.00 | 0.00 | 29 | 1011.1 |
| 20260503202006 | 74 | 83 | 5.0 | 10.0 | 0.00 | 0.00 | 0.00 | 30 | 1011.3 |
| 20260503201525 | 73 | 328 | 1.0 | 8.0 | 0.00 | 0.00 | 0.00 | 29 | 1011.4 |
| 20260503201008 | 73 | 325 | 2.0 | 12.0 | 0.00 | 0.00 | 0.00 | 29 | 1011.5 |
| 20260503200507 | 73 | 321 | 7.0 | 14.0 | 0.00 | 0.00 | 0.00 | 29 | 1011.6 |
| 20260503200027 | 73 | 27 | 5.0 | 14.0 | 0.00 | 0.00 | 0.00 | 29 | 1011.5 |
| 20260503195506 | 74 | 326 | 6.0 | 14.0 | 0.00 | 0.00 | 0.00 | 30 | 1011.7 |
| 20260503195006 | 74 | 355 | 4.0 | 14.0 | 0.00 | 0.00 | 0.00 | 29 | 1011.7 |
| 20260503194528 | 73 | 355 | 9.0 | 14.0 | 0.00 | 0.00 | 0.00 | 30 | 1011.7 |
| 20260503194008 | 73 | 355 | 4.0 | 13.0 | 0.00 | 0.00 | 0.00 | 29 | 1011.7 |
| 20260503193506 | 74 | 15 | 7.0 | 18.0 | 0.00 | 0.00 | 0.00 | 29 | 1011.7 |
| 20260503193026 | 74 | 336 | 9.0 | 18.0 | 0.00 | 0.00 | 0.00 | 30 | 1011.8 |
| 20260503192509 | 73 | 33 | 9.0 | 15.0 | 0.00 | 0.00 | 0.00 | 30 | 1011.7 |
| 20260503192002 | 73 | 42 | 4.0 | 11.0 | 0.00 | 0.00 | 0.00 | 30 | 1011.8 |
| 20260503191510 | 73 | 28 | 4.0 | 11.0 | 0.00 | 0.00 | 0.00 | 29 | 1011.8 |
| 20260503191003 | 73 | 360 | 3.0 | 12.0 | 0.00 | 0.00 | 0.00 | 30 | 1011.9 |
| 20260503190507 | 73 | 24 | 4.0 | 14.0 | 0.00 | 0.00 | 0.00 | 30 | 1011.9 |
| 20260503190021 | 73 | 29 | 8.0 | 15.0 | 0.00 | 0.00 | 0.00 | 30 | 1012.0 |
| 20260503185507 | 73 | 360 | 9.0 | 15.0 | 0.00 | 0.00 | 0.00 | 30 | 1012.0 |
| 20260503185011 | 73 | 38 | 7.0 | 16.0 | 0.00 | 0.00 | 0.00 | 31 | 1012.1 |
| 20260503184525 | 72 | 355 | 8.0 | 16.0 | 0.00 | 0.00 | 0.00 | 30 | 1012.1 |
| 20260503184010 | 72 | 22 | 5.0 | 14.0 | 0.00 | 0.00 | 0.00 | 30 | 1012.1 |
| 20260503183510 | 71 | 254 | 3.0 | 12.0 | 0.00 | 0.00 | 0.00 | 30 | 1012.2 |
| 20260503183034 | 71 | 322 | 4.0 | 17.0 | 0.00 | 0.00 | 0.00 | 29 | 1012.3 |
| 20260503182511 | 72 | 328 | 5.0 | 17.0 | 0.00 | 0.00 | 0.00 | 29 | 1012.4 |
| 20260503182012 | 72 | 5 | 10.0 | 16.0 | 0.00 | 0.00 | 0.00 | 29 | 1012.4 |
| 20260503181549 | 72 | 329 | 5.0 | 17.0 | 0.00 | 0.00 | 0.00 | 29 | 1012.4 |
| 20260503181003 | 72 | 308 | 9.0 | 18.0 | 0.00 | 0.00 | 0.00 | 29 | 1012.6 |
| 20260503180503 | 72 | 331 | 11.0 | 18.0 | 0.00 | 0.00 | 0.00 | 29 | 1012.6 |
| 20260503180014 | 72 | 14 | 3.0 | 13.0 | 0.00 | 0.00 | 0.00 | 30 | 1012.7 |
| 20260503175504 | 71 | 346 | 1.0 | 16.0 | 0.00 | 0.00 | 0.00 | 31 | 1012.7 |
| 20260503175010 | 71 | 34 | 3.0 | 16.0 | 0.00 | 0.00 | 0.00 | 31 | 1012.7 |
| 20260503174520 | 71 | 26 | 5.0 | 16.0 | 0.00 | 0.00 | 0.00 | 32 | 1012.9 |
| 20260503174007 | 71 | 35 | 7.0 | 14.0 | 0.00 | 0.00 | 0.00 | 30 | 1013.0 |
| 20260503173507 | 71 | 309 | 9.0 | 14.0 | 0.00 | 0.00 | 0.00 | 31 | 1013.0 |
| 20260503173042 | 70 | 355 | 7.0 | 12.0 | 0.00 | 0.00 | 0.00 | 31 | 1013.1 |
| 20260503172504 | 70 | 355 | 5.0 | 11.0 | 0.00 | 0.00 | 0.00 | 31 | 1013.1 |
| 20260503172003 | 70 | 360 | 5.0 | 15.0 | 0.00 | 0.00 | 0.00 | 32 | 1013.3 |
| 20260503171512 | 70 | 340 | 7.0 | 17.0 | 0.00 | 0.00 | 0.00 | 31 | 1013.4 |
| 20260503171003 | 70 | 355 | 8.0 | 17.0 | 0.00 | 0.00 | 0.00 | 32 | 1013.3 |
| 20260503170503 | 70 | 16 | 9.0 | 15.0 | 0.00 | 0.00 | 0.00 | 33 | 1013.4 |